Airfield :
LOGIN :

Register | Disclaimer

   EN    FR    IT 

 










Legend :    VFR   Marginal VFR   IFR   Intensive IFR   Very Intensive IFR
Visi :
Ceiling :
>= 8 km
>= 3000ft
5 to 8 km
1000 to 3000 ft
1500m to 5 km
500 to 1000 ft
800 to 1500m
200 to 500 ft
< 800m
< 200 ft
Symbols :   Thunderstorms  Fog  Heavy snow  Heavy precipitations  Wind > 20 kt
SIGMETs :     Misc.  Thunderstorms  Icing  Turbulence  Mountain Waves  Volcanic Ashes







- Airport Elevation : 1649 ft
- IATA code : HHN


EDFH - Frankfurt-Hahn Rhineland-Palatinate

CURRENT METAR :
  • 252120Z 08011KT CAVOK 08/M02 Q1021

EXPIRED METARs :
  • 252050Z 08011KT CAVOK 08/M03 Q1022
  • 252020Z 07011KT CAVOK 08/M02 Q1022
  • 251950Z 06011KT CAVOK 08/M02 Q1022
  • 251920Z 06011KT CAVOK 08/M01 Q1022
  • 251850Z 05010KT CAVOK 08/M01 Q1022

TAF TAF EDFH
Valid from the 25 at 18:00 until the 26 at 18:00 UTC


251700Z 2518/2618 07014KT CAVOK
BECMG 2521/2524 10009KT
No reported NOTAMs for that airfield.



MET'MAP, your aeronautical weather chart ! - Copyright ORBIFLY December 2007 - Disclaimer

ORBIFLY MET'MAP TEAM :

Programming & Development : Alexandra Zaïnal
Concept & Development : Baudouin d'Aumeries
Co-Development & Prog : Marc-Olivier Méhu
Technical & hardware support : Manuel Goepfert

Contact : metmap@orbifly.com




SOURCES & CREDITS :

   NOAA